Latest Weather Observations for Mackay Airport

IDQ60801

Issued at 8:32 am EST Sunday 1 February 2015 (issued every 30 minutes, with the page automatically refreshed every 10 minutes)

About weather observations | Map of weather stations | Latest weather observations for QLD | Other Formats
Station Details ID: 033045 Name: MACKAY AERO Lat: -21.17 Lon: 149.18 Height: 4.7 m
Data from the previous 72 hours. | See also: Recent months at Mackay Airport
Date/Time
EST
Temp
°C
App
Temp
°C
Dew
Point
Rel
Hum
%
Delta-T
°C
Wind Press
QNH
hPa
Press
MSL
hPa
Rain
since 9 am
mm
Dir
 
Spd
km/h
Gust
km/h
Spd
kts
Gust
kts
01/08:00am 26.2 28.8 21.2 74 3.3 W 9 11 5 6 1007.7 1007.7 0.0
01/07:30am 25.1 27.9 21.6 81 2.3 W 9 11 5 6 1007.5 1007.5 0.0
01/07:00am 24.3 26.6 22.0 87 1.5 W 13 17 7 9 1007.2 1007.2 0.0
01/06:30am 23.5 26.4 21.8 90 1.1 W 9 13 5 7 1006.8 1006.8 0.0
01/06:00am 22.5 25.6 21.5 94 0.7 WSW 7 9 4 5 1006.5 1006.5 0.0
01/05:30am 22.7 26.0 21.5 93 0.8 WSW 6 9 3 5 1006.1 1006.1 0.0
01/05:00am 22.5 25.7 21.3 93 0.8 W 6 7 3 4 1006.0 1006.0 0.0
01/04:30am 23.1 25.7 21.9 93 0.8 W 11 13 6 7 1005.7 1005.7 0.0
01/04:00am 23.0 27.6 21.8 93 0.8 CALM 0 0 0 0 1005.5 1005.5 0.0
01/03:30am 23.0 26.2 21.6 92 0.9 W 7 9 4 5 1005.5 1005.5 0.0
01/03:00am 23.1 26.0 21.7 92 0.9 W 9 9 5 5 1005.5 1005.5 0.0
01/02:30am 23.2 27.7 21.6 91 1.1 CALM 0 6 0 3 1005.6 1005.6 0.0
01/02:00am 23.4 26.9 21.8 91 1.1 W 6 7 3 4 1006.0 1006.0 0.0
01/01:30am 23.8 27.3 22.2 91 1.1 W 7 9 4 5 1006.3 1006.3 0.0
01/01:00am 23.7 27.1 22.0 90 1.1 W 7 9 4 5 1006.7 1006.7 0.0
01/12:30am 24.0 27.5 22.1 89 1.3 WNW 7 9 4 5 1007.1 1007.1 0.0
01/12:00am 24.1 27.6 22.2 89 1.3 WNW 7 9 4 5 1007.4 1007.4 0.0
 
Date/Time
EST
Temp
°C
App
Temp
°C
Dew
Point
Rel
Hum
%
Delta-T
°C
Wind Press
QNH
hPa
Press
MSL
hPa
Rain
since 9 am
mm
Dir
 
Spd
km/h
Gust
km/h
Spd
kts
Gust
kts
31/11:30pm 24.6 28.0 22.7 89 1.3 W 9 11 5 6 1007.8 1007.8 0.0
31/11:00pm 25.2 28.6 22.7 86 1.7 SW 9 11 5 6 1008.0 1008.0 0.0
31/10:30pm 25.1 28.3 22.4 85 1.8 WSW 9 11 5 6 1008.2 1008.2 0.0
31/10:00pm 25.3 28.4 22.2 83 2.1 NNW 9 11 5 6 1007.9 1007.9 0.0
31/09:30pm 25.9 29.3 22.0 79 2.6 NNE 7 7 4 4 1007.9 1007.9 0.0
31/09:00pm 26.0 29.3 21.9 78 2.7 NNE 7 9 4 5 1007.6 1007.6 0.0
31/08:30pm 26.6 29.7 22.2 77 3.0 NE 9 9 5 5 1007.2 1007.2 0.0
31/08:00pm 26.8 30.2 22.0 75 3.2 NE 7 11 4 6 1006.9 1006.9 0.0
31/07:30pm 27.4 30.4 21.9 72 3.7 NE 9 11 5 6 1006.6 1006.6 0.0
31/07:00pm 27.9 30.1 21.9 70 4.0 ENE 13 15 7 8 1006.3 1006.3 0.0
31/06:30pm 28.5 30.4 22.0 68 4.4 ENE 15 19 8 10 1006.2 1006.2 0.0
31/06:00pm 28.9 30.1 21.4 64 5.0 ENE 17 20 9 11 1005.9 1005.9 0.0
31/05:30pm 29.6 31.2 22.1 64 5.1 ENE 17 22 9 12 1005.6 1005.6 0.0
31/05:00pm 29.7 30.9 21.4 61 5.6 ENE 17 22 9 12 1005.5 1005.5 0.0
31/04:30pm 29.9 31.3 21.8 62 5.5 ENE 17 26 9 14 1005.4 1005.4 0.0
31/04:00pm 30.2 30.8 21.3 59 6.0 ENE 20 26 11 14 1005.2 1005.2 0.0
31/03:30pm 30.5 31.5 22.1 61 5.7 ENE 20 30 11 16 1005.3 1005.3 0.0
31/03:00pm 30.2 30.6 21.8 60 5.7 ENE 22 28 12 15 1005.5 1005.5 0.0
31/02:30pm 30.7 32.5 22.6 62 5.5 E 17 22 9 12 1006.0 1006.0 0.0
31/02:00pm 30.4 31.8 21.8 60 5.8 E 17 22 9 12 1006.2 1006.2 0.0
31/01:30pm 30.5 33.1 22.7 63 5.3 E 13 19 7 10 1006.6 1006.6 0.0
31/01:00pm 29.9 31.8 21.3 60 5.8 E 13 19 7 10 1006.7 1006.7 0.0
31/12:30pm 30.2 31.6 21.8 60 5.7 E 17 20 9 11 1007.0 1007.0 0.0
31/12:00pm 30.0 32.0 22.9 65 4.9 ESE 17 20 9 11 1007.2 1007.2 0.0
31/11:30am 29.6 31.5 22.1 64 5.1 E 15 22 8 12 1007.9 1007.9 0.0
31/11:00am 29.9 32.7 23.6 69 4.4 E 15 20 8 11 1008.4 1008.4 0.0
31/10:30am 29.6 32.5 23.1 68 4.5 ESE 13 19 7 10 1008.8 1008.8 0.0
31/10:00am 29.3 31.0 21.0 61 5.5 SE 13 20 7 11 1008.8 1008.8 0.0
31/09:30am 29.1 31.6 21.1 62 5.3 SE 9 15 5 8 1008.7 1008.7 0.0
31/09:00am 27.9 31.1 22.4 72 3.7 SW 9 15 5 8 1008.7 1008.7 0.0
31/08:30am 27.6 31.1 22.8 75 3.3 SW 9 11 5 6 1008.8 1008.8 0.0
31/08:00am 26.8 30.5 23.3 81 2.4 SW 9 13 5 7 1008.4 1008.4 0.0
31/07:30am 25.4 28.8 22.7 85 1.8 WSW 9 11 5 6 1008.5 1008.5 0.0
31/07:00am 24.4 27.0 22.7 90 1.1 SW 13 15 7 8 1008.4 1008.4 0.0
31/06:30am 23.4 26.6 22.4 94 0.7 W 9 9 5 5 1007.9 1007.9 0.0
31/06:00am 22.4 25.6 21.6 95 0.5 W 7 9 4 5 1007.4 1007.4 0.0
31/05:30am 22.6 25.5 21.8 95 0.5 WSW 9 11 5 6 1007.0 1007.0 0.0
31/05:00am 22.7 25.6 21.7 94 0.7 WSW 9 9 5 5 1006.7 1006.7 0.0
31/04:30am 22.9 25.5 21.9 94 0.7 WSW 11 13 6 7 1006.7 1006.7 0.0
31/04:00am 23.1 25.8 22.1 94 0.7 WSW 11 13 6 7 1006.6 1006.6 0.0
31/03:30am 23.5 27.1 22.3 93 0.8 WSW 7 9 4 5 1006.5 1006.5 0.0
31/03:00am 23.3 26.8 21.9 92 0.9 SW 6 7 3 4 1006.5 1006.5 0.0
31/02:30am 23.6 26.5 22.4 93 0.8 SW 11 13 6 7 1006.7 1006.7 0.0
31/02:00am 23.8 27.0 22.4 92 0.9 SW 9 11 5 6 1006.7 1006.7 0.0
31/01:30am 24.1 27.8 22.5 91 1.1 SW 7 9 4 5 1006.9 1006.9 0.0
31/01:00am 24.5 28.0 22.9 91 1.1 SW 9 11 5 6 1007.2 1007.2 0.0
31/12:30am 25.0 29.7 22.7 87 1.5 E 2 9 1 5 1007.4 1007.4 0.0
31/12:00am 26.6 29.3 22.2 77 3.0 E 11 17 6 9 1007.7 1007.7 0.0
 
Date/Time
EST
Temp
°C
App
Temp
°C
Dew
Point
Rel
Hum
%
Delta-T
°C
Wind Press
QNH
hPa
Press
MSL
hPa
Rain
since 9 am
mm
Dir
 
Spd
km/h
Gust
km/h
Spd
kts
Gust
kts
30/11:30pm 26.9 29.4 22.5 77 3.0 E 13 17 7 9 1007.9 1007.9 0.0
30/11:00pm 27.2 29.4 22.6 76 3.1 E 15 19 8 10 1008.1 1008.1 0.0
30/10:30pm 27.2 28.9 22.4 75 3.2 E 17 20 9 11 1008.4 1008.4 0.0
30/10:00pm 27.3 29.9 22.7 76 3.1 ESE 13 17 7 9 1008.4 1008.4 0.0
30/09:30pm 27.5 29.8 22.7 75 3.3 E 15 19 8 10 1008.0 1008.0 0.0
30/09:00pm 27.6 29.6 23.0 76 3.1 ESE 17 20 9 11 1007.7 1007.7 0.0
30/08:30pm 27.4 29.6 22.6 75 3.2 E 15 19 8 10 1007.6 1007.6 0.0
30/08:00pm 27.6 29.0 22.5 74 3.5 E 19 22 10 12 1007.2 1007.2 0.0
30/07:30pm 27.9 29.3 22.8 74 3.5 ESE 20 28 11 15 1007.0 1007.0 0.0
30/07:00pm 27.6 29.3 23.0 76 3.1 E 19 24 10 13 1006.9 1006.9 0.0
30/06:30pm 27.6 29.6 23.0 76 3.1 E 17 22 9 12 1006.4 1006.4 0.0
30/06:00pm 28.0 29.0 22.9 74 3.5 ESE 22 28 12 15 1006.0 1006.0 0.0
30/05:30pm 28.5 29.0 22.0 68 4.4 ESE 22 28 12 15 1005.7 1005.7 0.0
30/05:00pm 28.1 28.4 22.3 70 3.9 ESE 24 30 13 16 1005.3 1005.3 0.0
30/04:30pm 28.9 29.4 22.6 69 4.3 ESE 24 32 13 17 1005.1 1005.1 0.0
30/04:00pm 29.1 30.1 22.8 69 4.3 ESE 22 28 12 15 1005.2 1005.2 0.0
30/03:30pm 28.6 29.5 21.6 66 4.7 ESE 19 24 10 13 1005.7 1005.7 0.0
30/03:00pm 28.6 29.5 21.9 67 4.5 ESE 20 26 11 14 1005.7 1005.7 0.0
30/02:30pm 28.7 29.5 22.4 68 4.3 ESE 22 30 12 16 1006.0 1006.0 0.0
30/02:00pm 28.7 29.7 22.9 71 4.0 ESE 22 30 12 16 1006.0 1006.0 0.0
30/01:30pm 28.5 29.4 23.9 76 3.2 ESE 26 32 14 17 1006.4 1006.4 0.0
30/01:00pm 29.0 30.1 23.7 73 3.7 ESE 24 30 13 16 1006.6 1006.6 0.0
30/12:30pm 28.4 29.3 23.3 74 3.5 ESE 24 28 13 15 1007.0 1007.0 0.0
30/12:00pm 28.7 30.0 24.0 76 3.3 ESE 24 30 13 16 1007.5 1007.5 0.0
30/11:30am 28.6 29.5 23.9 75 3.2 ESE 26 32 14 17 1008.2 1008.2 0.0
30/11:00am 28.2 29.3 22.0 69 4.2 ESE 19 24 10 13 1008.2 1008.2 0.0
30/10:30am 28.1 30.5 23.7 77 3.0 SE 17 24 9 13 1008.2 1008.2 0.0
30/10:00am 28.0 30.5 23.8 78 2.9 SE 17 24 9 13 1008.4 1008.4 0.0
30/09:30am 27.8 30.2 23.6 78 2.9 SE 17 24 9 13 1008.5 1008.5 0.0
30/09:00am 26.5 28.7 23.2 82 2.3 SE 17 20 9 11 1008.2 1008.2 3.2
30/08:30am 27.1 28.5 22.9 78 2.9 SE 20 26 11 14 1008.1 1008.1 3.2
30/08:00am 25.7 26.6 23.4 87 1.6 SE 24 32 13 17 1007.9 1007.9 3.2
30/07:30am 25.4 26.7 22.7 85 1.8 SSE 20 26 11 14 1007.7 1007.7 3.2
30/07:00am 24.7 27.0 23.5 93 0.8 SSE 17 22 9 12 1007.5 1007.5 3.2
30/06:30am 24.2 27.1 23.2 94 0.7 S 13 20 7 11 1006.9 1006.9 3.2
30/06:00am 24.0 26.4 23.0 94 0.7 SSW 15 19 8 10 1006.5 1006.5 3.2
30/05:30am 23.9 27.0 22.9 94 0.7 SW 11 13 6 7 1006.0 1006.0 3.2
30/05:00am 23.8 26.9 22.8 94 0.7 SSW 11 13 6 7 1005.7 1005.7 3.2
30/04:30am 23.9 26.6 22.9 94 0.7 SSW 13 15 7 8 1005.4 1005.4 3.2
30/04:00am 24.3 26.7 22.9 92 0.9 S 15 19 8 10 1005.1 1005.1 3.0
30/03:30am 24.3 26.9 23.3 94 0.7 SSW 15 20 8 11 1005.2 1005.2 3.0
30/03:00am 24.3 26.9 23.3 94 0.7 S 15 17 8 9 1005.3 1005.3 3.0
30/02:30am 24.6 26.0 22.8 90 1.2 S 20 30 11 16 1005.6 1005.6 3.0
30/02:00am 26.3 28.5 24.0 87 1.6 E 19 24 10 13 1005.7 1005.7 3.0
30/01:30am 25.2 29.5 24.2 94 0.7 SE 9 13 5 7 1006.2 1006.2 3.0
30/01:14am 24.9 27.7 23.7 93 0.8 SE 15 24 8 13 1006.5 1006.5 3.0
30/01:00am 25.1 26.1 23.5 91 1.1 ESE 24 35 13 19 1006.7 1006.7 2.8
30/12:50am 25.2 26.5 23.3 89 1.3 SSE 22 41 12 22 1006.7 1006.7 0.6
30/12:30am 27.4 28.5 23.0 77 3.0 E 22 30 12 16 1006.9 1006.9 0.0
30/12:00am 27.3 29.7 22.9 77 3.0 ESE 15 20 8 11 1007.2 1007.2 0.0
 
Date/Time
EST
Temp
°C
App
Temp
°C
Dew
Point
Rel
Hum
%
Delta-T
°C
Wind Press
QNH
hPa
Press
MSL
hPa
Rain
since 9 am
mm
Dir
 
Spd
km/h
Gust
km/h
Spd
kts
Gust
kts
29/11:30pm 27.3 28.6 22.7 76 3.1 ESE 20 26 11 14 1007.3 1007.3 0.0
29/11:00pm 27.3 28.1 23.1 78 2.9 ESE 24 35 13 19 1007.5 1007.5 0.0
29/10:30pm 27.4 28.1 23.0 77 3.0 ESE 24 28 13 15 1007.5 1007.5 0.0
29/10:00pm 27.4 28.9 23.0 77 3.0 ESE 20 24 11 13 1007.7 1007.7 0.0
29/09:30pm 27.3 28.4 23.1 78 2.9 ESE 22 28 12 15 1007.5 1007.5 0.0
29/09:00pm 27.3 28.9 23.3 79 2.7 ESE 20 26 11 14 1007.1 1007.1 0.0
29/08:30pm 27.0 27.7 23.0 79 2.7 ESE 24 32 13 17 1006.6 1006.6 0.0
29/08:00pm 27.2 28.1 23.4 80 2.6 ESE 24 33 13 18 1006.3 1006.3 0.0
29/07:30pm 27.3 28.3 23.5 80 2.6 ESE 24 32 13 17 1006.3 1006.3 0.0
29/07:00pm 27.3 28.0 23.7 81 2.5 ESE 26 33 14 18 1005.9 1005.9 0.0
29/06:30pm 27.5 27.9 23.1 77 3.0 SE 26 32 14 17 1005.6 1005.6 0.0
29/06:00pm 27.7 27.9 23.5 78 2.9 SE 28 33 15 18 1005.1 1005.1 0.0
29/05:30pm 27.9 29.2 23.3 76 3.1 ESE 22 30 12 16 1004.5 1004.5 0.0
29/05:00pm 29.0 30.5 23.7 73 3.7 ESE 22 28 12 15 1003.8 1003.8 0.0
29/04:30pm 29.1 30.8 24.0 74 3.5 SE 22 28 12 15 1003.8 1003.8 0.0
29/04:00pm 29.0 31.2 24.3 76 3.3 ESE 20 28 11 15 1003.9 1003.9 0.0
29/03:30pm 29.1 30.8 24.0 74 3.5 ESE 22 30 12 16 1003.7 1003.7 0.0
29/03:00pm 29.4 31.9 25.4 79 2.8 ESE 22 28 12 15 1004.1 1004.1 0.0
29/02:30pm 29.4 31.0 24.5 75 3.4 ESE 24 30 13 16 1003.9 1003.9 0.0
29/02:00pm 29.3 30.4 23.7 72 3.9 ESE 24 28 13 15 1004.1 1004.1 0.0
29/01:30pm 29.5 32.5 25.3 78 3.0 ESE 19 26 10 14 1004.2 1004.2 0.0
29/01:00pm 29.3 31.3 24.6 76 3.3 ESE 22 28 12 15 1004.6 1004.6 0.0
29/12:30pm 29.2 31.6 25.2 79 2.8 ESE 22 30 12 16 1004.9 1004.9 0.0
29/12:00pm 28.8 31.0 24.8 79 2.8 ESE 22 28 12 15 1005.2 1005.2 0.0
29/11:30am 28.5 30.6 24.7 80 2.7 ESE 22 26 12 14 1005.5 1005.5 0.0
29/11:00am 28.3 29.0 24.3 79 2.8 SE 28 33 15 18 1005.7 1005.7 0.0
29/10:30am 27.9 28.1 22.8 74 3.5 SE 26 35 14 19 1005.8 1005.8 0.0
29/10:00am 27.3 27.7 23.7 81 2.5 SE 28 37 15 20 1005.8 1005.8 0.0
29/09:37am 27.9 28.2 24.9 84 2.1 SE 32 39 17 21 1005.5 1005.5 0.0
29/09:30am 26.9 26.6 23.8 83 2.1 SE 32 41 17 22 1005.5 1005.5 0.0
29/09:20am 27.3 28.1 24.4 84 2.0 SE 28 41 15 22 1005.3 1005.3 0.0
29/09:00am 27.0 28.9 23.7 82 2.3 SE 20 26 11 14 1005.3 1005.3 20.4

Other Formats:

Comma delimited format used in spreadsheet applications
http://www.bom.gov.au/fwo/IDQ60801/IDQ60801.95367.axf

JavaScript Object Notation format (JSON) in row-major order
http://www.bom.gov.au/fwo/IDQ60801/IDQ60801.95367.json